Site contains unofficial IBTrACS data. Visit the IBTrACS Website to access archived data.

1922 NOT_NAMED (1922211N12140)


IBTrACS version v04r00. Visit IBTrACS website for data access.
Please direct all questions to the IBTrACS Q and A forum

Storm track - Intensity - Wind Radii - Intensity Data - Source Data - All data

Summary Information

Storm ID 1922211N12140
Start Jul 29 22Z
Landfall Aug 2 03Z, Aug 3 09Z
End Aug 3 22Z
ATCF IDs
Track status Best track data.

Storm track plot

Map of storm track

Intensity plots

No Intensity information for this storm


Radial wind information

No radial wind information for this storm


Position and Intensity Table

BASIN ISO_TIME_________ NATURE LAT LON
degrees north degrees east
WP 1922-07-29 22:00:00 NR 12.00 140.00
WP 1922-07-30 00:00:00 NR 12.08 139.33
WP 03:00:00 NR 12.21 138.33
WP 06:00:00 NR 12.38 137.33
WP 09:00:00 NR 12.61 136.33
WP 10:00:00 NR 12.70 136.00
WP 12:00:00 NR 12.91 135.33
WP 15:00:00 NR 13.28 134.34
WP 18:00:00 NR 13.68 133.36
WP 21:00:00 NR 14.07 132.41
WP 22:00:00 NR 14.20 132.10
WP 1922-07-31 00:00:00 NR 14.42 131.49
WP 03:00:00 NR 14.72 130.59
WP 06:00:00 NR 15.01 129.72
WP 09:00:00 NR 15.30 128.88
WP 10:00:00 NR 15.40 128.60
WP 12:00:00 NR 15.62 128.01
WP 15:00:00 NR 15.94 127.13
WP 18:00:00 NR 16.25 126.32
WP 21:00:00 NR 16.52 125.61
WP 22:00:00 NR 16.60 125.40
WP 1922-08-01 00:00:00 NR 16.74 125.05
WP 03:00:00 NR 16.90 124.62
WP 06:00:00 NR 17.04 124.29
WP 09:00:00 NR 17.16 124.00
WP 10:00:00 NR 17.20 123.90
WP 12:00:00 NR 17.25 123.69
WP 15:00:00 NR 17.33 123.39
WP 18:00:00 NR 17.44 123.08
WP 21:00:00 NR 17.62 122.73
WP 22:00:00 NR 17.70 122.60
WP 1922-08-02 00:00:00 NR 17.92 122.29
WP 03:00:00 NR 18.33 121.77
WP 06:00:00 NR 18.81 121.22
WP 09:00:00 NR 19.32 120.67
WP 10:00:00 NR 19.50 120.50
WP 12:00:00 NR 19.83 120.20
WP 15:00:00 NR 20.34 119.77
WP 18:00:00 NR 20.87 119.34
WP 21:00:00 NR 21.42 118.87
WP 22:00:00 NR 21.60 118.70
WP 1922-08-03 00:00:00 NR 21.97 118.36
WP 03:00:00 NR 22.52 117.80
WP 06:00:00 NR 23.07 117.18
WP 09:00:00 NR 23.62 116.46
WP 10:00:00 NR 23.80 116.20
WP 12:00:00 NR 24.15 115.64
WP 15:00:00 NR 24.66 114.71
WP 18:00:00 NR 25.16 113.70
WP 21:00:00 NR 25.64 112.66
WP 22:00:00 NR 25.80 112.30

Source Information

Agency Information
USA
TOKYO
CMA
HKO
NEWDELHI
REUNION
BOM
NADI
WELLINGTON
DS824
TD9636 cons_worldwide_trop_cyclone_18710101-19891231-003:Line=6656
TD9635
NEUMANN
MLC

All available IBTrACS Data

SEASON BASIN SUBBASIN ISO_TIME_________ NATURE LAT LON DIST2LAND LANDFALL IFLAG USA SSHS TD9636 LAT TD9636 LON TD9636 STAGE STORM SPEED STORM DIR
Year degrees north degrees east km km 1 degrees north degrees east kts degrees
1922 WP MM 1922-07-29 22:00:00 NR 12.00 140.00 1503 1468 __________O___ -1 12.00 140.00 7 20 277
1922 WP MM 1922-07-30 00:00:00 NR 12.08 139.33 1468 1364 __________P___ -1 12.08 139.33 7 20 277
1922 WP MM 03:00:00 NR 12.21 138.33 1364 1262 __________P___ -1 12.21 138.33 7 20 279
1922 WP MM 06:00:00 NR 12.38 137.33 1262 1157 __________P___ -1 12.38 137.33 7 20 281
1922 WP MM 09:00:00 NR 12.61 136.33 1157 1137 __________P___ -1 12.61 136.33 7 20 284
1922 WP MM 10:00:00 NR 12.70 136.00 1126 1055 __________O___ -1 12.70 136.00 7 20 287
1922 WP MM 12:00:00 NR 12.91 135.33 1055 959 __________P___ -1 12.91 135.33 7 21 290
1922 WP MM 15:00:00 NR 13.28 134.34 959 872 __________P___ -1 13.28 134.34 7 21 292
1922 WP MM 18:00:00 NR 13.68 133.36 872 777 __________P___ -1 13.68 133.36 7 20 293
1922 WP MM 21:00:00 NR 14.07 132.41 777 759 __________P___ -1 14.07 132.41 7 20 293
1922 WP MM 22:00:00 NR 14.20 132.10 749 694 __________O___ -1 14.20 132.10 7 19 291
1922 WP MM 1922-07-31 00:00:00 NR 14.42 131.49 694 618 __________P___ -1 14.42 131.49 7 19 290
1922 WP MM 03:00:00 NR 14.72 130.59 618 551 __________P___ -1 14.72 130.59 7 18 289
1922 WP MM 06:00:00 NR 15.01 129.72 551 505 __________P___ -1 15.01 129.72 7 18 289
1922 WP MM 09:00:00 NR 15.30 128.88 505 482 __________P___ -1 15.30 128.88 7 17 290
1922 WP MM 10:00:00 NR 15.40 128.60 482 431 __________O___ -1 15.40 128.60 7 18 290
1922 WP MM 12:00:00 NR 15.62 128.01 431 366 __________P___ -1 15.62 128.01 7 18 291
1922 WP MM 15:00:00 NR 15.94 127.13 366 326 __________P___ -1 15.94 127.13 7 17 291
1922 WP MM 18:00:00 NR 16.25 126.32 326 312 __________P___ -1 16.25 126.32 7 16 292
1922 WP MM 21:00:00 NR 16.52 125.61 312 308 __________P___ -1 16.52 125.61 7 14 292
1922 WP MM 22:00:00 NR 16.60 125.40 310 267 __________O___ -1 16.60 125.40 3 12 292
1922 WP MM 1922-08-01 00:00:00 NR 16.74 125.05 267 223 __________P___ -1 16.74 125.05 3 10 292
1922 WP MM 03:00:00 NR 16.90 124.62 223 191 __________P___ -1 16.90 124.62 3 8 293
1922 WP MM 06:00:00 NR 17.04 124.29 191 159 __________P___ -1 17.04 124.29 3 7 293
1922 WP MM 09:00:00 NR 17.16 124.00 161 150 __________P___ -1 17.16 124.00 3 6 293
1922 WP MM 10:00:00 NR 17.20 123.90 150 129 __________O___ -1 17.20 123.90 4 6 288
1922 WP MM 12:00:00 NR 17.25 123.69 131 101 __________P___ -1 17.25 123.69 4 6 285
1922 WP MM 15:00:00 NR 17.33 123.39 101 75 __________P___ -1 17.33 123.39 4 6 287
1922 WP MM 18:00:00 NR 17.44 123.08 75 46 __________P___ -1 17.44 123.08 4 7 294
1922 WP MM 21:00:00 NR 17.62 122.73 46 46 __________P___ -1 17.62 122.73 4 8 300
1922 WP MM 22:00:00 NR 17.70 122.60 49 21 __________O___ -1 17.70 122.60 4 10 306
1922 WP MM 1922-08-02 00:00:00 NR 17.92 122.29 21 0 __________P___ -1 17.92 122.29 4 12 308
1922 WP MM 03:00:00 NR 18.33 121.77 0 0 __________P___ -1 18.33 121.77 4 14 311
1922 WP MM 06:00:00 NR 18.81 121.22 33 33 __________P___ -1 18.81 121.22 4 14 314
1922 WP MM 09:00:00 NR 19.32 120.67 79 91 __________P___ -1 19.32 120.67 4 15 316
1922 WP MM 10:00:00 NR 19.50 120.50 105 105 __________O___ -1 19.50 120.50 4 14 318
1922 WP MM 12:00:00 NR 19.83 120.20 148 158 __________P___ -1 19.83 120.20 4 13 321
1922 WP MM 15:00:00 NR 20.34 119.77 201 182 __________P___ -1 20.34 119.77 4 13 322
1922 WP MM 18:00:00 NR 20.87 119.34 183 176 __________P___ -1 20.87 119.34 4 14 322
1922 WP MM 21:00:00 NR 21.42 118.87 189 190 __________P___ -1 21.42 118.87 4 14 321
1922 WP MM 22:00:00 NR 21.60 118.70 193 191 __________O___ -1 21.60 118.70 4 15 319
1922 WP MM 1922-08-03 00:00:00 NR 21.97 118.36 203 132 __________P___ -1 21.97 118.36 4 15 318
1922 WP MM 03:00:00 NR 22.52 117.80 132 45 __________P___ -1 22.52 117.80 4 16 315
1922 WP MM 06:00:00 NR 23.07 117.18 45 0 __________P___ -1 23.07 117.18 4 17 312
1922 WP MM 09:00:00 NR 23.62 116.46 0 0 __________P___ -1 23.62 116.46 4 17 309
1922 WP MM 10:00:00 NR 23.80 116.20 0 0 __________O___ -1 23.80 116.20 7 19 305
1922 WP MM 12:00:00 NR 24.15 115.64 0 0 __________P___ -1 24.15 115.64 7 19 302
1922 WP MM 15:00:00 NR 24.66 114.71 0 0 __________P___ -1 24.66 114.71 7 20 300
1922 WP MM 18:00:00 NR 25.16 113.70 0 0 __________P___ -1 25.16 113.70 7 21 298
1922 WP MM 21:00:00 NR 25.64 112.66 0 0 __________P___ -1 25.64 112.66 7 21 297
1922 WP MM 22:00:00 NR 25.80 112.30 0 __________O___ -1 25.80 112.30 7 21 296